sensor_id;sensor_type;location;lat;lon;timestamp;P1;durP1;ratioP1;P2;durP2;ratioP2
13218;SDS011;6674;49.152;11.918;2023-01-25T00:01:04;35.90;;;24.17;;
13218;SDS011;6674;49.152;11.918;2023-01-25T00:03:31;35.47;;;23.00;;
13218;SDS011;6674;49.152;11.918;2023-01-25T00:05:59;26.17;;;19.20;;
13218;SDS011;6674;49.152;11.918;2023-01-25T00:08:27;25.67;;;18.73;;
13218;SDS011;6674;49.152;11.918;2023-01-25T00:10:55;23.33;;;17.43;;
13218;SDS011;6674;49.152;11.918;2023-01-25T00:13:22;24.40;;;18.30;;
13218;SDS011;6674;49.152;11.918;2023-01-25T00:15:59;24.47;;;17.90;;
13218;SDS011;6674;49.152;11.918;2023-01-25T00:18:27;25.73;;;19.07;;
13218;SDS011;6674;49.152;11.918;2023-01-25T00:20:54;23.70;;;16.50;;
13218;SDS011;6674;49.152;11.918;2023-01-25T00:23:22;21.53;;;16.67;;
13218;SDS011;6674;49.152;11.918;2023-01-25T00:25:51;23.60;;;15.97;;
13218;SDS011;6674;49.152;11.918;2023-01-25T00:28:22;24.30;;;17.10;;
13218;SDS011;6674;49.152;11.918;2023-01-25T00:30:50;23.20;;;16.03;;
13218;SDS011;6674;49.152;11.918;2023-01-25T00:33:31;28.63;;;19.77;;
13218;SDS011;6674;49.152;11.918;2023-01-25T00:35:59;26.83;;;17.97;;
13218;SDS011;6674;49.152;11.918;2023-01-25T00:38:29;23.47;;;16.30;;
13218;SDS011;6674;49.152;11.918;2023-01-25T00:40:59;22.73;;;16.57;;
13218;SDS011;6674;49.152;11.918;2023-01-25T00:43:26;27.07;;;18.40;;
13218;SDS011;6674;49.152;11.918;2023-01-25T00:45:58;25.27;;;17.93;;
13218;SDS011;6674;49.152;11.918;2023-01-25T00:48:25;23.30;;;16.37;;
13218;SDS011;6674;49.152;11.918;2023-01-25T00:50:58;26.97;;;18.63;;
13218;SDS011;6674;49.152;11.918;2023-01-25T00:53:28;25.43;;;17.90;;
13218;SDS011;6674;49.152;11.918;2023-01-25T00:55:54;24.20;;;16.93;;
13218;SDS011;6674;49.152;11.918;2023-01-25T00:58:21;21.17;;;15.47;;
13218;SDS011;6674;49.152;11.918;2023-01-25T01:00:48;24.97;;;17.33;;
13218;SDS011;6674;49.152;11.918;2023-01-25T01:03:19;23.20;;;16.13;;
13218;SDS011;6674;49.152;11.918;2023-01-25T01:05:45;26.80;;;17.80;;
13218;SDS011;6674;49.152;11.918;2023-01-25T01:08:12;25.03;;;18.43;;
13218;SDS011;6674;49.152;11.918;2023-01-25T01:10:41;21.73;;;14.90;;
13218;SDS011;6674;49.152;11.918;2023-01-25T01:13:07;23.43;;;15.60;;
13218;SDS011;6674;49.152;11.918;2023-01-25T01:15:34;24.33;;;17.03;;
13218;SDS011;6674;49.152;11.918;2023-01-25T01:18:01;30.40;;;18.93;;
13218;SDS011;6674;49.152;11.918;2023-01-25T01:20:28;23.17;;;15.67;;
13218;SDS011;6674;49.152;11.918;2023-01-25T01:22:55;23.33;;;16.30;;
13218;SDS011;6674;49.152;11.918;2023-01-25T01:25:22;27.60;;;18.23;;
13218;SDS011;6674;49.152;11.918;2023-01-25T01:27:52;23.83;;;16.40;;
13218;SDS011;6674;49.152;11.918;2023-01-25T01:30:18;25.17;;;16.50;;
13218;SDS011;6674;49.152;11.918;2023-01-25T01:32:45;22.80;;;17.40;;
13218;SDS011;6674;49.152;11.918;2023-01-25T01:35:14;26.70;;;18.17;;
13218;SDS011;6674;49.152;11.918;2023-01-25T01:37:40;25.77;;;16.70;;
13218;SDS011;6674;49.152;11.918;2023-01-25T01:40:09;26.60;;;18.73;;
13218;SDS011;6674;49.152;11.918;2023-01-25T01:45:55;25.83;;;17.60;;
13218;SDS011;6674;49.152;11.918;2023-01-25T01:48:25;24.33;;;16.57;;
13218;SDS011;6674;49.152;11.918;2023-01-25T01:50:59;21.13;;;15.20;;
13218;SDS011;6674;49.152;11.918;2023-01-25T01:53:28;26.07;;;17.97;;
13218;SDS011;6674;49.152;11.918;2023-01-25T01:55:58;25.00;;;16.50;;
13218;SDS011;6674;49.152;11.918;2023-01-25T01:58:28;22.13;;;15.43;;
13218;SDS011;6674;49.152;11.918;2023-01-25T02:00:57;27.67;;;17.90;;
13218;SDS011;6674;49.152;11.918;2023-01-25T02:03:24;22.00;;;15.73;;
13218;SDS011;6674;49.152;11.918;2023-01-25T02:05:53;21.30;;;16.43;;
13218;SDS011;6674;49.152;11.918;2023-01-25T02:08:23;22.53;;;15.93;;
13218;SDS011;6674;49.152;11.918;2023-01-25T02:10:51;26.33;;;18.20;;
13218;SDS011;6674;49.152;11.918;2023-01-25T02:13:18;23.07;;;16.97;;
13218;SDS011;6674;49.152;11.918;2023-01-25T02:15:46;25.07;;;18.20;;
13218;SDS011;6674;49.152;11.918;2023-01-25T02:18:15;20.47;;;14.83;;
13218;SDS011;6674;49.152;11.918;2023-01-25T02:20:44;24.60;;;17.70;;
13218;SDS011;6674;49.152;11.918;2023-01-25T02:23:15;23.17;;;16.20;;
13218;SDS011;6674;49.152;11.918;2023-01-25T02:25:48;26.77;;;18.20;;
13218;SDS011;6674;49.152;11.918;2023-01-25T02:28:17;21.80;;;16.57;;
13218;SDS011;6674;49.152;11.918;2023-01-25T02:30:48;22.00;;;15.13;;
13218;SDS011;6674;49.152;11.918;2023-01-25T02:33:15;26.27;;;17.20;;
13218;SDS011;6674;49.152;11.918;2023-01-25T02:35:43;24.97;;;17.80;;
13218;SDS011;6674;49.152;11.918;2023-01-25T02:38:12;22.63;;;15.40;;
13218;SDS011;6674;49.152;11.918;2023-01-25T02:40:43;22.27;;;15.90;;
13218;SDS011;6674;49.152;11.918;2023-01-25T02:43:14;20.07;;;14.67;;
13218;SDS011;6674;49.152;11.918;2023-01-25T02:45:43;20.10;;;14.53;;
13218;SDS011;6674;49.152;11.918;2023-01-25T02:48:12;23.40;;;16.70;;
13218;SDS011;6674;49.152;11.918;2023-01-25T02:50:39;20.60;;;14.90;;
13218;SDS011;6674;49.152;11.918;2023-01-25T02:53:06;19.57;;;14.57;;
13218;SDS011;6674;49.152;11.918;2023-01-25T02:55:33;19.10;;;13.83;;
13218;SDS011;6674;49.152;11.918;2023-01-25T02:58:00;20.90;;;15.37;;
13218;SDS011;6674;49.152;11.918;2023-01-25T03:00:30;17.90;;;14.53;;
13218;SDS011;6674;49.152;11.918;2023-01-25T03:02:57;21.20;;;15.00;;
13218;SDS011;6674;49.152;11.918;2023-01-25T03:05:24;18.00;;;13.23;;
13218;SDS011;6674;49.152;11.918;2023-01-25T03:07:52;20.90;;;15.40;;
13218;SDS011;6674;49.152;11.918;2023-01-25T03:10:18;20.43;;;14.93;;
13218;SDS011;6674;49.152;11.918;2023-01-25T03:12:45;16.70;;;12.80;;
13218;SDS011;6674;49.152;11.918;2023-01-25T03:15:11;19.03;;;14.00;;
13218;SDS011;6674;49.152;11.918;2023-01-25T03:17:39;17.50;;;12.47;;
13218;SDS011;6674;49.152;11.918;2023-01-25T03:20:06;15.03;;;11.40;;
13218;SDS011;6674;49.152;11.918;2023-01-25T03:22:35;18.53;;;13.27;;
13218;SDS011;6674;49.152;11.918;2023-01-25T03:25:02;18.53;;;14.03;;
13218;SDS011;6674;49.152;11.918;2023-01-25T03:27:29;18.80;;;13.50;;
13218;SDS011;6674;49.152;11.918;2023-01-25T03:29:56;16.60;;;11.97;;
13218;SDS011;6674;49.152;11.918;2023-01-25T03:32:23;15.93;;;12.23;;
13218;SDS011;6674;49.152;11.918;2023-01-25T03:34:50;19.37;;;14.80;;
13218;SDS011;6674;49.152;11.918;2023-01-25T03:37:17;16.17;;;11.90;;
13218;SDS011;6674;49.152;11.918;2023-01-25T03:39:44;17.10;;;12.80;;
13218;SDS011;6674;49.152;11.918;2023-01-25T03:42:10;18.27;;;13.70;;
13218;SDS011;6674;49.152;11.918;2023-01-25T03:44:37;19.43;;;13.07;;
13218;SDS011;6674;49.152;11.918;2023-01-25T03:47:05;17.00;;;13.07;;
13218;SDS011;6674;49.152;11.918;2023-01-25T03:49:33;16.00;;;12.93;;
13218;SDS011;6674;49.152;11.918;2023-01-25T03:52:02;18.30;;;13.53;;
13218;SDS011;6674;49.152;11.918;2023-01-25T03:54:29;18.50;;;13.50;;
13218;SDS011;6674;49.152;11.918;2023-01-25T03:56:55;20.13;;;13.80;;
13218;SDS011;6674;49.152;11.918;2023-01-25T03:59:23;22.27;;;15.47;;
13218;SDS011;6674;49.152;11.918;2023-01-25T04:01:50;17.80;;;12.67;;
13218;SDS011;6674;49.152;11.918;2023-01-25T04:04:17;17.30;;;12.87;;
13218;SDS011;6674;49.152;11.918;2023-01-25T04:06:43;19.27;;;13.47;;
13218;SDS011;6674;49.152;11.918;2023-01-25T04:09:12;19.30;;;14.57;;
13218;SDS011;6674;49.152;11.918;2023-01-25T04:11:38;18.30;;;13.57;;
13218;SDS011;6674;49.152;11.918;2023-01-25T04:14:05;15.77;;;12.50;;
13218;SDS011;6674;49.152;11.918;2023-01-25T04:16:32;17.87;;;12.70;;
13218;SDS011;6674;49.152;11.918;2023-01-25T04:19:00;17.90;;;12.83;;
13218;SDS011;6674;49.152;11.918;2023-01-25T04:21:26;16.77;;;12.70;;
13218;SDS011;6674;49.152;11.918;2023-01-25T04:23:53;15.00;;;11.57;;
13218;SDS011;6674;49.152;11.918;2023-01-25T04:26:21;15.93;;;11.70;;
13218;SDS011;6674;49.152;11.918;2023-01-25T04:28:48;18.77;;;13.83;;
13218;SDS011;6674;49.152;11.918;2023-01-25T04:31:14;15.97;;;12.10;;
13218;SDS011;6674;49.152;11.918;2023-01-25T04:33:41;20.23;;;15.13;;
13218;SDS011;6674;49.152;11.918;2023-01-25T04:36:07;13.60;;;11.30;;
13218;SDS011;6674;49.152;11.918;2023-01-25T04:38:35;18.80;;;14.27;;
13218;SDS011;6674;49.152;11.918;2023-01-25T04:41:02;20.33;;;14.43;;
13218;SDS011;6674;49.152;11.918;2023-01-25T04:43:30;18.57;;;13.27;;
13218;SDS011;6674;49.152;11.918;2023-01-25T04:45:59;18.80;;;13.93;;
13218;SDS011;6674;49.152;11.918;2023-01-25T04:48:30;18.07;;;13.20;;
13218;SDS011;6674;49.152;11.918;2023-01-25T04:50:58;20.13;;;14.27;;
13218;SDS011;6674;49.152;11.918;2023-01-25T04:53:25;20.47;;;14.63;;
13218;SDS011;6674;49.152;11.918;2023-01-25T04:55:51;18.40;;;12.63;;
13218;SDS011;6674;49.152;11.918;2023-01-25T04:58:18;16.50;;;11.73;;
13218;SDS011;6674;49.152;11.918;2023-01-25T05:00:46;16.67;;;11.50;;
13218;SDS011;6674;49.152;11.918;2023-01-25T05:03:12;15.93;;;11.37;;
13218;SDS011;6674;49.152;11.918;2023-01-25T05:05:42;14.97;;;11.90;;
13218;SDS011;6674;49.152;11.918;2023-01-25T05:08:11;14.90;;;10.73;;
13218;SDS011;6674;49.152;11.918;2023-01-25T05:10:37;16.50;;;11.67;;
13218;SDS011;6674;49.152;11.918;2023-01-25T05:13:04;16.77;;;11.63;;
13218;SDS011;6674;49.152;11.918;2023-01-25T05:15:31;15.30;;;11.37;;
13218;SDS011;6674;49.152;11.918;2023-01-25T05:17:59;14.53;;;11.50;;
13218;SDS011;6674;49.152;11.918;2023-01-25T05:20:25;15.37;;;11.43;;
13218;SDS011;6674;49.152;11.918;2023-01-25T05:22:52;14.97;;;11.07;;
13218;SDS011;6674;49.152;11.918;2023-01-25T05:25:18;16.07;;;11.77;;
13218;SDS011;6674;49.152;11.918;2023-01-25T05:28:03;17.97;;;12.70;;
13218;SDS011;6674;49.152;11.918;2023-01-25T05:30:30;14.73;;;11.07;;
13218;SDS011;6674;49.152;11.918;2023-01-25T05:32:56;14.77;;;11.30;;
13218;SDS011;6674;49.152;11.918;2023-01-25T05:35:24;18.03;;;12.33;;
13218;SDS011;6674;49.152;11.918;2023-01-25T05:37:54;15.17;;;11.47;;
13218;SDS011;6674;49.152;11.918;2023-01-25T05:40:21;16.57;;;11.87;;
13218;SDS011;6674;49.152;11.918;2023-01-25T05:42:51;17.33;;;13.17;;
13218;SDS011;6674;49.152;11.918;2023-01-25T05:45:19;13.90;;;10.50;;
13218;SDS011;6674;49.152;11.918;2023-01-25T05:47:45;12.90;;;10.30;;
13218;SDS011;6674;49.152;11.918;2023-01-25T05:50:12;16.80;;;12.23;;
13218;SDS011;6674;49.152;11.918;2023-01-25T05:52:40;13.27;;;10.53;;
13218;SDS011;6674;49.152;11.918;2023-01-25T05:55:07;15.63;;;11.00;;
13218;SDS011;6674;49.152;11.918;2023-01-25T05:57:33;15.30;;;10.77;;
13218;SDS011;6674;49.152;11.918;2023-01-25T06:00:00;16.30;;;11.60;;
13218;SDS011;6674;49.152;11.918;2023-01-25T06:02:27;14.70;;;11.10;;
13218;SDS011;6674;49.152;11.918;2023-01-25T06:04:53;15.83;;;11.80;;
13218;SDS011;6674;49.152;11.918;2023-01-25T06:07:21;15.63;;;11.53;;
13218;SDS011;6674;49.152;11.918;2023-01-25T06:09:49;15.93;;;11.80;;
13218;SDS011;6674;49.152;11.918;2023-01-25T06:12:18;14.40;;;10.33;;
13218;SDS011;6674;49.152;11.918;2023-01-25T06:14:46;13.90;;;11.30;;
13218;SDS011;6674;49.152;11.918;2023-01-25T06:17:13;14.87;;;10.97;;
13218;SDS011;6674;49.152;11.918;2023-01-25T06:19:39;16.93;;;12.80;;
13218;SDS011;6674;49.152;11.918;2023-01-25T06:22:07;12.93;;;10.77;;
13218;SDS011;6674;49.152;11.918;2023-01-25T06:24:35;14.63;;;11.60;;
13218;SDS011;6674;49.152;11.918;2023-01-25T06:27:03;15.93;;;11.23;;
13218;SDS011;6674;49.152;11.918;2023-01-25T06:29:29;14.83;;;10.70;;
13218;SDS011;6674;49.152;11.918;2023-01-25T06:31:56;17.13;;;13.43;;
13218;SDS011;6674;49.152;11.918;2023-01-25T06:34:23;17.37;;;13.17;;
13218;SDS011;6674;49.152;11.918;2023-01-25T06:36:50;17.57;;;12.73;;
13218;SDS011;6674;49.152;11.918;2023-01-25T06:39:17;17.27;;;12.83;;
13218;SDS011;6674;49.152;11.918;2023-01-25T06:41:44;17.17;;;11.83;;
13218;SDS011;6674;49.152;11.918;2023-01-25T06:44:11;14.73;;;11.53;;
13218;SDS011;6674;49.152;11.918;2023-01-25T06:46:39;15.77;;;11.50;;
13218;SDS011;6674;49.152;11.918;2023-01-25T06:49:07;14.97;;;11.53;;
13218;SDS011;6674;49.152;11.918;2023-01-25T06:51:36;16.30;;;12.10;;
13218;SDS011;6674;49.152;11.918;2023-01-25T06:54:03;15.40;;;11.47;;
13218;SDS011;6674;49.152;11.918;2023-01-25T06:56:31;15.43;;;12.20;;
13218;SDS011;6674;49.152;11.918;2023-01-25T06:58:58;14.83;;;10.90;;
13218;SDS011;6674;49.152;11.918;2023-01-25T07:01:25;14.83;;;10.90;;
13218;SDS011;6674;49.152;11.918;2023-01-25T07:03:54;16.67;;;11.03;;
13218;SDS011;6674;49.152;11.918;2023-01-25T07:06:22;13.37;;;10.43;;
13218;SDS011;6674;49.152;11.918;2023-01-25T07:08:49;13.67;;;10.47;;
13218;SDS011;6674;49.152;11.918;2023-01-25T07:11:16;13.63;;;9.77;;
13218;SDS011;6674;49.152;11.918;2023-01-25T07:13:44;14.83;;;11.10;;
13218;SDS011;6674;49.152;11.918;2023-01-25T07:16:12;12.97;;;10.50;;
13218;SDS011;6674;49.152;11.918;2023-01-25T07:18:42;13.40;;;10.23;;
13218;SDS011;6674;49.152;11.918;2023-01-25T07:21:09;14.50;;;10.63;;
13218;SDS011;6674;49.152;11.918;2023-01-25T07:23:38;14.80;;;10.37;;
13218;SDS011;6674;49.152;11.918;2023-01-25T07:26:08;16.57;;;12.53;;
13218;SDS011;6674;49.152;11.918;2023-01-25T07:28:46;14.40;;;10.27;;
13218;SDS011;6674;49.152;11.918;2023-01-25T07:31:14;13.83;;;10.83;;
13218;SDS011;6674;49.152;11.918;2023-01-25T07:33:42;15.77;;;11.67;;
13218;SDS011;6674;49.152;11.918;2023-01-25T07:36:12;13.20;;;10.43;;
13218;SDS011;6674;49.152;11.918;2023-01-25T07:38:39;14.93;;;11.70;;
13218;SDS011;6674;49.152;11.918;2023-01-25T07:41:05;13.13;;;10.30;;
13218;SDS011;6674;49.152;11.918;2023-01-25T07:43:32;13.70;;;10.67;;
13218;SDS011;6674;49.152;11.918;2023-01-25T07:45:59;15.37;;;11.47;;
13218;SDS011;6674;49.152;11.918;2023-01-25T07:48:29;13.17;;;10.40;;
13218;SDS011;6674;49.152;11.918;2023-01-25T07:51:00;14.77;;;11.47;;
13218;SDS011;6674;49.152;11.918;2023-01-25T07:53:47;16.97;;;11.53;;
13218;SDS011;6674;49.152;11.918;2023-01-25T07:56:14;13.77;;;10.60;;
13218;SDS011;6674;49.152;11.918;2023-01-25T07:58:41;14.33;;;11.23;;
13218;SDS011;6674;49.152;11.918;2023-01-25T08:01:08;13.70;;;11.03;;
13218;SDS011;6674;49.152;11.918;2023-01-25T08:03:35;15.20;;;11.40;;
13218;SDS011;6674;49.152;11.918;2023-01-25T08:06:04;13.23;;;9.90;;
13218;SDS011;6674;49.152;11.918;2023-01-25T08:08:31;14.67;;;11.10;;
13218;SDS011;6674;49.152;11.918;2023-01-25T08:11:05;14.97;;;11.00;;
13218;SDS011;6674;49.152;11.918;2023-01-25T08:13:34;17.57;;;13.30;;
13218;SDS011;6674;49.152;11.918;2023-01-25T08:16:00;20.50;;;16.60;;
13218;SDS011;6674;49.152;11.918;2023-01-25T08:18:27;33.13;;;26.00;;
13218;SDS011;6674;49.152;11.918;2023-01-25T08:20:56;33.70;;;26.47;;
13218;SDS011;6674;49.152;11.918;2023-01-25T08:23:25;55.80;;;40.57;;
13218;SDS011;6674;49.152;11.918;2023-01-25T08:25:55;40.60;;;30.70;;
13218;SDS011;6674;49.152;11.918;2023-01-25T08:28:27;150.13;;;77.37;;
13218;SDS011;6674;49.152;11.918;2023-01-25T08:30:55;163.77;;;86.57;;
13218;SDS011;6674;49.152;11.918;2023-01-25T08:33:30;135.23;;;75.13;;
13218;SDS011;6674;49.152;11.918;2023-01-25T08:35:57;226.77;;;127.97;;
13218;SDS011;6674;49.152;11.918;2023-01-25T08:38:24;128.23;;;85.53;;
13218;SDS011;6674;49.152;11.918;2023-01-25T08:40:53;62.53;;;40.67;;
13218;SDS011;6674;49.152;11.918;2023-01-25T08:43:20;35.80;;;27.33;;
13218;SDS011;6674;49.152;11.918;2023-01-25T08:45:47;20.40;;;15.63;;
13218;SDS011;6674;49.152;11.918;2023-01-25T08:48:22;23.77;;;19.07;;
13218;SDS011;6674;49.152;11.918;2023-01-25T08:50:51;18.70;;;15.80;;
13218;SDS011;6674;49.152;11.918;2023-01-25T08:53:17;15.80;;;13.97;;
13218;SDS011;6674;49.152;11.918;2023-01-25T08:55:45;15.83;;;12.87;;
13218;SDS011;6674;49.152;11.918;2023-01-25T08:58:12;13.83;;;11.23;;
13218;SDS011;6674;49.152;11.918;2023-01-25T09:00:41;13.83;;;10.73;;
13218;SDS011;6674;49.152;11.918;2023-01-25T09:03:09;12.27;;;9.23;;
13218;SDS011;6674;49.152;11.918;2023-01-25T09:05:37;12.13;;;10.33;;
13218;SDS011;6674;49.152;11.918;2023-01-25T09:08:05;12.63;;;10.13;;
13218;SDS011;6674;49.152;11.918;2023-01-25T09:10:32;11.47;;;9.83;;
13218;SDS011;6674;49.152;11.918;2023-01-25T09:13:01;12.73;;;10.00;;
13218;SDS011;6674;49.152;11.918;2023-01-25T09:15:28;12.33;;;9.90;;
13218;SDS011;6674;49.152;11.918;2023-01-25T09:17:55;11.83;;;9.80;;
13218;SDS011;6674;49.152;11.918;2023-01-25T09:20:22;12.40;;;10.00;;
13218;SDS011;6674;49.152;11.918;2023-01-25T09:22:49;12.57;;;10.20;;
13218;SDS011;6674;49.152;11.918;2023-01-25T09:25:16;10.57;;;9.43;;
13218;SDS011;6674;49.152;11.918;2023-01-25T09:27:43;12.57;;;10.47;;
13218;SDS011;6674;49.152;11.918;2023-01-25T09:30:11;14.23;;;10.97;;
13218;SDS011;6674;49.152;11.918;2023-01-25T09:32:38;11.27;;;9.33;;
13218;SDS011;6674;49.152;11.918;2023-01-25T09:35:05;11.63;;;9.37;;
13218;SDS011;6674;49.152;11.918;2023-01-25T09:37:32;11.80;;;10.03;;
13218;SDS011;6674;49.152;11.918;2023-01-25T09:39:59;12.37;;;9.80;;
13218;SDS011;6674;49.152;11.918;2023-01-25T09:42:29;11.00;;;9.03;;
13218;SDS011;6674;49.152;11.918;2023-01-25T09:45:18;13.10;;;9.70;;
13218;SDS011;6674;49.152;11.918;2023-01-25T09:47:53;11.63;;;9.20;;
13218;SDS011;6674;49.152;11.918;2023-01-25T09:50:31;10.53;;;9.13;;
13218;SDS011;6674;49.152;11.918;2023-01-25T09:53:15;13.07;;;10.17;;
13218;SDS011;6674;49.152;11.918;2023-01-25T09:55:49;12.17;;;9.23;;
13218;SDS011;6674;49.152;11.918;2023-01-25T09:58:20;11.80;;;9.43;;
13218;SDS011;6674;49.152;11.918;2023-01-25T10:00:53;11.83;;;9.07;;
13218;SDS011;6674;49.152;11.918;2023-01-25T10:03:33;10.67;;;8.70;;
13218;SDS011;6674;49.152;11.918;2023-01-25T10:06:08;10.83;;;8.60;;
13218;SDS011;6674;49.152;11.918;2023-01-25T10:08:39;9.60;;;7.83;;
13218;SDS011;6674;49.152;11.918;2023-01-25T10:11:13;10.90;;;8.97;;
13218;SDS011;6674;49.152;11.918;2023-01-25T10:13:44;10.83;;;8.93;;
13218;SDS011;6674;49.152;11.918;2023-01-25T10:16:13;11.27;;;8.73;;
13218;SDS011;6674;49.152;11.918;2023-01-25T10:18:49;11.17;;;9.30;;
13218;SDS011;6674;49.152;11.918;2023-01-25T10:21:24;10.23;;;8.80;;
13218;SDS011;6674;49.152;11.918;2023-01-25T10:24:00;13.07;;;9.53;;
13218;SDS011;6674;49.152;11.918;2023-01-25T10:26:51;9.33;;;7.73;;
13218;SDS011;6674;49.152;11.918;2023-01-25T10:29:22;8.73;;;7.83;;
13218;SDS011;6674;49.152;11.918;2023-01-25T10:31:54;11.00;;;8.87;;
13218;SDS011;6674;49.152;11.918;2023-01-25T10:34:26;9.60;;;7.80;;
13218;SDS011;6674;49.152;11.918;2023-01-25T10:36:57;10.07;;;8.53;;
13218;SDS011;6674;49.152;11.918;2023-01-25T10:39:28;10.07;;;8.77;;
13218;SDS011;6674;49.152;11.918;2023-01-25T10:41:57;10.23;;;8.87;;
13218;SDS011;6674;49.152;11.918;2023-01-25T10:44:26;10.87;;;9.37;;
13218;SDS011;6674;49.152;11.918;2023-01-25T10:47:03;11.87;;;9.40;;
13218;SDS011;6674;49.152;11.918;2023-01-25T10:49:35;10.63;;;8.47;;
13218;SDS011;6674;49.152;11.918;2023-01-25T10:52:13;10.70;;;8.57;;
13218;SDS011;6674;49.152;11.918;2023-01-25T10:54:42;10.93;;;8.93;;
13218;SDS011;6674;49.152;11.918;2023-01-25T10:57:11;10.10;;;7.60;;
13218;SDS011;6674;49.152;11.918;2023-01-25T10:59:43;12.27;;;8.83;;
13218;SDS011;6674;49.152;11.918;2023-01-25T11:02:33;9.40;;;7.60;;
13218;SDS011;6674;49.152;11.918;2023-01-25T11:05:19;11.07;;;8.50;;
13218;SDS011;6674;49.152;11.918;2023-01-25T11:07:50;10.07;;;8.00;;
13218;SDS011;6674;49.152;11.918;2023-01-25T11:10:25;11.13;;;9.13;;
13218;SDS011;6674;49.152;11.918;2023-01-25T11:15:46;10.63;;;9.07;;
13218;SDS011;6674;49.152;11.918;2023-01-25T11:18:17;11.13;;;9.13;;
13218;SDS011;6674;49.152;11.918;2023-01-25T11:20:45;11.33;;;8.50;;
13218;SDS011;6674;49.152;11.918;2023-01-25T11:23:20;11.57;;;9.10;;
13218;SDS011;6674;49.152;11.918;2023-01-25T11:25:48;9.63;;;8.50;;
13218;SDS011;6674;49.152;11.918;2023-01-25T11:28:16;10.40;;;8.17;;
13218;SDS011;6674;49.152;11.918;2023-01-25T11:30:45;10.93;;;8.50;;
13218;SDS011;6674;49.152;11.918;2023-01-25T11:33:14;11.10;;;8.70;;
13218;SDS011;6674;49.152;11.918;2023-01-25T11:38:34;10.37;;;8.17;;
13218;SDS011;6674;49.152;11.918;2023-01-25T11:41:04;10.50;;;7.97;;
13218;SDS011;6674;49.152;11.918;2023-01-25T11:43:44;12.50;;;9.00;;
13218;SDS011;6674;49.152;11.918;2023-01-25T11:46:27;10.73;;;9.03;;
13218;SDS011;6674;49.152;11.918;2023-01-25T11:49:07;11.50;;;8.93;;
13218;SDS011;6674;49.152;11.918;2023-01-25T11:51:42;9.77;;;7.87;;
13218;SDS011;6674;49.152;11.918;2023-01-25T11:57:17;11.03;;;7.93;;
13218;SDS011;6674;49.152;11.918;2023-01-25T11:59:56;13.40;;;10.80;;
13218;SDS011;6674;49.152;11.918;2023-01-25T12:05:38;11.50;;;9.03;;
13218;SDS011;6674;49.152;11.918;2023-01-25T12:08:17;11.87;;;8.67;;
13218;SDS011;6674;49.152;11.918;2023-01-25T12:10:53;12.00;;;9.27;;
13218;SDS011;6674;49.152;11.918;2023-01-25T12:13:29;13.73;;;10.50;;
13218;SDS011;6674;49.152;11.918;2023-01-25T12:16:09;14.87;;;10.77;;
13218;SDS011;6674;49.152;11.918;2023-01-25T12:18:49;19.53;;;13.67;;
13218;SDS011;6674;49.152;11.918;2023-01-25T12:21:38;37.17;;;20.73;;
13218;SDS011;6674;49.152;11.918;2023-01-25T12:24:19;16.97;;;11.97;;
13218;SDS011;6674;49.152;11.918;2023-01-25T12:26:59;18.33;;;11.93;;
13218;SDS011;6674;49.152;11.918;2023-01-25T12:29:38;14.47;;;10.63;;
13218;SDS011;6674;49.152;11.918;2023-01-25T12:32:10;11.73;;;8.97;;
13218;SDS011;6674;49.152;11.918;2023-01-25T12:34:42;12.13;;;9.53;;
13218;SDS011;6674;49.152;11.918;2023-01-25T12:37:15;9.47;;;8.27;;
13218;SDS011;6674;49.152;11.918;2023-01-25T12:39:45;10.67;;;8.27;;
13218;SDS011;6674;49.152;11.918;2023-01-25T12:42:16;10.27;;;8.17;;
13218;SDS011;6674;49.152;11.918;2023-01-25T12:44:46;10.63;;;8.43;;
13218;SDS011;6674;49.152;11.918;2023-01-25T12:47:20;10.43;;;7.63;;
13218;SDS011;6674;49.152;11.918;2023-01-25T12:49:54;11.37;;;9.17;;
13218;SDS011;6674;49.152;11.918;2023-01-25T12:52:26;11.70;;;9.50;;
13218;SDS011;6674;49.152;11.918;2023-01-25T12:54:59;9.87;;;8.50;;
13218;SDS011;6674;49.152;11.918;2023-01-25T12:57:28;10.33;;;8.50;;
13218;SDS011;6674;49.152;11.918;2023-01-25T13:00:04;11.00;;;8.37;;
13218;SDS011;6674;49.152;11.918;2023-01-25T13:02:54;9.10;;;7.47;;
13218;SDS011;6674;49.152;11.918;2023-01-25T13:05:32;11.40;;;8.77;;
13218;SDS011;6674;49.152;11.918;2023-01-25T13:08:09;10.97;;;8.70;;
13218;SDS011;6674;49.152;11.918;2023-01-25T13:10:43;10.10;;;8.10;;
13218;SDS011;6674;49.152;11.918;2023-01-25T13:13:18;10.20;;;7.80;;
13218;SDS011;6674;49.152;11.918;2023-01-25T13:15:47;9.13;;;7.67;;
13218;SDS011;6674;49.152;11.918;2023-01-25T13:21:06;13.70;;;9.50;;
13218;SDS011;6674;49.152;11.918;2023-01-25T13:23:37;13.00;;;10.07;;
13218;SDS011;6674;49.152;11.918;2023-01-25T13:32:12;14.23;;;11.50;;
13218;SDS011;6674;49.152;11.918;2023-01-25T13:34:55;13.20;;;10.73;;
13218;SDS011;6674;49.152;11.918;2023-01-25T13:37:23;11.80;;;9.77;;
13218;SDS011;6674;49.152;11.918;2023-01-25T13:39:55;13.23;;;10.23;;
13218;SDS011;6674;49.152;11.918;2023-01-25T13:42:24;14.00;;;10.87;;
13218;SDS011;6674;49.152;11.918;2023-01-25T13:44:52;14.37;;;11.00;;
13218;SDS011;6674;49.152;11.918;2023-01-25T13:47:21;12.23;;;9.30;;
13218;SDS011;6674;49.152;11.918;2023-01-25T13:49:52;10.67;;;8.77;;
13218;SDS011;6674;49.152;11.918;2023-01-25T13:52:24;11.10;;;8.80;;
13218;SDS011;6674;49.152;11.918;2023-01-25T13:54:53;12.37;;;9.63;;
13218;SDS011;6674;49.152;11.918;2023-01-25T13:57:24;10.97;;;9.13;;
13218;SDS011;6674;49.152;11.918;2023-01-25T14:00:02;8.97;;;7.90;;
13218;SDS011;6674;49.152;11.918;2023-01-25T14:02:31;13.10;;;11.27;;
13218;SDS011;6674;49.152;11.918;2023-01-25T14:04:59;32.13;;;26.37;;
13218;SDS011;6674;49.152;11.918;2023-01-25T14:07:29;16.53;;;13.13;;
13218;SDS011;6674;49.152;11.918;2023-01-25T14:10:03;12.13;;;10.53;;
13218;SDS011;6674;49.152;11.918;2023-01-25T14:12:37;12.63;;;9.70;;
13218;SDS011;6674;49.152;11.918;2023-01-25T14:15:18;13.87;;;11.13;;
13218;SDS011;6674;49.152;11.918;2023-01-25T14:18:03;14.80;;;11.03;;
13218;SDS011;6674;49.152;11.918;2023-01-25T14:20:36;13.00;;;10.83;;
13218;SDS011;6674;49.152;11.918;2023-01-25T14:23:03;14.33;;;10.70;;
13218;SDS011;6674;49.152;11.918;2023-01-25T14:25:30;15.33;;;11.83;;
13218;SDS011;6674;49.152;11.918;2023-01-25T14:27:59;15.57;;;11.40;;
13218;SDS011;6674;49.152;11.918;2023-01-25T14:30:28;19.20;;;15.40;;
13218;SDS011;6674;49.152;11.918;2023-01-25T14:32:56;20.60;;;16.23;;
13218;SDS011;6674;49.152;11.918;2023-01-25T14:35:32;18.40;;;15.23;;
13218;SDS011;6674;49.152;11.918;2023-01-25T14:38:02;19.70;;;14.63;;
13218;SDS011;6674;49.152;11.918;2023-01-25T14:40:34;23.00;;;17.03;;
13218;SDS011;6674;49.152;11.918;2023-01-25T14:43:02;34.73;;;26.27;;
13218;SDS011;6674;49.152;11.918;2023-01-25T14:45:29;25.13;;;19.47;;
13218;SDS011;6674;49.152;11.918;2023-01-25T14:47:57;29.03;;;21.50;;
13218;SDS011;6674;49.152;11.918;2023-01-25T14:50:30;17.20;;;13.40;;
13218;SDS011;6674;49.152;11.918;2023-01-25T14:52:59;19.03;;;15.67;;
13218;SDS011;6674;49.152;11.918;2023-01-25T14:55:33;19.10;;;13.73;;
13218;SDS011;6674;49.152;11.918;2023-01-25T14:58:02;17.23;;;13.40;;
13218;SDS011;6674;49.152;11.918;2023-01-25T15:00:29;22.60;;;15.47;;
13218;SDS011;6674;49.152;11.918;2023-01-25T15:02:58;22.07;;;17.17;;
13218;SDS011;6674;49.152;11.918;2023-01-25T15:05:27;27.43;;;19.30;;